PWSweather.com
Personal Weather Stations
Station Observations
MENWDWX1
Menstrie, ScotlandGB

MenstrieScotlandGB

Lat: 56.148322, Lon: -3.85483

Elevation: 62

Station Type: Davis Vantage Pro 2

Latest ConditionsUpdated 7:55:05 PM GMT Friday, Aug 18, 2017
Currently Today's Max Today's Min Today's Average
Temperature 55.0°F12.8°C 58.6°F14.8°C 52.2°F11.2°C 55.4°F13.0°C
Dew Point 50.9°F10.5°C 52.9°F11.6°C 49.5°F9.7°C 51.2°F10.7°C
Winds 1.2 mph W1.9 kmh W 15.0 mph WSW24.1 kmh WSW - 4.2 mph 6.8 kmh
Wind Gusts 2.3 mph3.7 kmh 23.0 mph37.0 kmh - -
Humidity 86% 91% 75% 86%
Pressure 29.56 in1001.0 mb 29.56 in1001.0 mb 29.45 in997.3 mb -
Precipitation - 0.03 in0.8 mm - -
Hour Temp Dew Point Humidity Winds Wind Gusts Pressure Precip Precip Rate Daily Precip Total
07:55 PM 55.0°F12.8°C 50.9°F10.5°C 86% 1.2 mph W1.9 kmh W 2.3 mph3.7 kmh 29.56 in1001.0 mb - 0.00 in0.0 mm 0.03 in0.8 mm
07:50 PM 55.0°F12.8°C 50.9°F10.5°C 86% Calm Calm 2.3 mph3.7 kmh 29.56 in1001.0 mb - 0.00 in0.0 mm 0.03 in0.8 mm
07:45 PM 55.1°F12.8°C 50.7°F10.4°C 85% 2.3 mph W3.7 kmh W 3.5 mph5.6 kmh 29.56 in1001.0 mb - 0.00 in0.0 mm 0.03 in0.8 mm
07:40 PM 55.3°F12.9°C 50.9°F10.5°C 85% 2.3 mph WNW3.7 kmh WNW 3.5 mph5.6 kmh 29.56 in1001.0 mb - 0.00 in0.0 mm 0.03 in0.8 mm
07:35 PM 55.5°F13.1°C 51.0°F10.6°C 85% 2.3 mph W3.7 kmh W 3.5 mph5.6 kmh 29.56 in1001.0 mb - 0.00 in0.0 mm 0.03 in0.8 mm
07:30 PM 55.6°F13.1°C 51.2°F10.7°C 85% 2.3 mph WNW3.7 kmh WNW 3.5 mph5.6 kmh 29.56 in1001.0 mb - 0.00 in0.0 mm 0.03 in0.8 mm
07:25 PM 55.7°F13.2°C 50.9°F10.5°C 84% 2.3 mph W3.7 kmh W 3.5 mph5.6 kmh 29.56 in1001.0 mb - 0.00 in0.0 mm 0.03 in0.8 mm
07:20 PM 55.8°F13.2°C 51.0°F10.6°C 84% 2.3 mph WNW3.7 kmh WNW 3.5 mph5.6 kmh 29.56 in1001.0 mb - 0.00 in0.0 mm 0.03 in0.8 mm
07:15 PM 55.9°F13.3°C 50.8°F10.4°C 83% 1.2 mph W1.9 kmh W 2.3 mph3.7 kmh 29.56 in1001.0 mb - 0.00 in0.0 mm 0.03 in0.8 mm
07:10 PM 55.9°F13.3°C 50.8°F10.4°C 83% 2.3 mph W3.7 kmh W 3.5 mph5.6 kmh 29.55 in1000.7 mb - 0.00 in0.0 mm 0.03 in0.8 mm
07:05 PM 56.0°F13.3°C 50.9°F10.5°C 83% 2.3 mph W3.7 kmh W 3.5 mph5.6 kmh 29.55 in1000.7 mb - 0.00 in0.0 mm 0.03 in0.8 mm
07:00 PM 56.0°F13.3°C 50.9°F10.5°C 83% 3.5 mph W5.6 kmh W 6.9 mph11.1 kmh 29.55 in1000.7 mb - 0.00 in0.0 mm 0.03 in0.8 mm
06:55 PM 56.1°F13.4°C 51.0°F10.6°C 83% 3.5 mph W5.6 kmh W 5.8 mph9.3 kmh 29.56 in1001.0 mb - 0.00 in0.0 mm 0.03 in0.8 mm
06:50 PM 56.2°F13.4°C 51.1°F10.6°C 83% 4.6 mph W7.4 kmh W 5.8 mph9.3 kmh 29.56 in1001.0 mb - 0.00 in0.0 mm 0.03 in0.8 mm
06:45 PM 56.3°F13.5°C 50.9°F10.5°C 82% 4.6 mph WSW7.4 kmh WSW 6.9 mph11.1 kmh 29.55 in1000.7 mb - 0.00 in0.0 mm 0.03 in0.8 mm
06:40 PM 56.4°F13.6°C 51.3°F10.7°C 83% 4.6 mph WSW7.4 kmh WSW 8.1 mph13.0 kmh 29.55 in1000.7 mb - 0.00 in0.0 mm 0.03 in0.8 mm
06:35 PM 56.6°F13.7°C 51.1°F10.6°C 82% 3.5 mph W5.6 kmh W 6.9 mph11.1 kmh 29.55 in1000.7 mb - 0.00 in0.0 mm 0.03 in0.8 mm
06:30 PM 56.7°F13.7°C 51.3°F10.7°C 82% 2.3 mph WNW3.7 kmh WNW 3.5 mph5.6 kmh 29.55 in1000.7 mb - 0.00 in0.0 mm 0.03 in0.8 mm
06:25 PM 56.8°F13.8°C 51.4°F10.8°C 82% 3.5 mph WSW5.6 kmh WSW 3.5 mph5.6 kmh 29.55 in1000.7 mb - 0.00 in0.0 mm 0.03 in0.8 mm
06:20 PM 56.9°F13.8°C 51.5°F10.8°C 82% 2.3 mph W3.7 kmh W 4.6 mph7.4 kmh 29.55 in1000.7 mb - 0.00 in0.0 mm 0.03 in0.8 mm
06:15 PM 57.0°F13.9°C 51.2°F10.7°C 81% 5.8 mph WSW9.3 kmh WSW 8.1 mph13.0 kmh 29.55 in1000.7 mb - 0.00 in0.0 mm 0.03 in0.8 mm
06:10 PM 57.1°F13.9°C 51.3°F10.7°C 81% 2.3 mph W3.7 kmh W 3.5 mph5.6 kmh 29.55 in1000.7 mb - 0.00 in0.0 mm 0.03 in0.8 mm
06:05 PM 57.1°F13.9°C 51.3°F10.7°C 81% 2.3 mph WSW3.7 kmh WSW 4.6 mph7.4 kmh 29.55 in1000.7 mb - 0.00 in0.0 mm 0.03 in0.8 mm
06:00 PM 57.0°F13.9°C 51.2°F10.7°C 81% 4.6 mph WSW7.4 kmh WSW 9.2 mph14.8 kmh 29.55 in1000.7 mb - 0.00 in0.0 mm 0.03 in0.8 mm
05:55 PM 56.8°F13.8°C 51.1°F10.6°C 81% 6.9 mph W11.1 kmh W 10.4 mph16.7 kmh 29.55 in1000.7 mb - 0.00 in0.0 mm 0.03 in0.8 mm
05:50 PM 56.9°F13.8°C 50.8°F10.4°C 80% 6.9 mph W11.1 kmh W 11.5 mph18.5 kmh 29.55 in1000.7 mb - 0.00 in0.0 mm 0.03 in0.8 mm
05:45 PM 56.9°F13.8°C 51.1°F10.6°C 81% 5.8 mph WSW9.3 kmh WSW 9.2 mph14.8 kmh 29.55 in1000.7 mb - 0.00 in0.0 mm 0.03 in0.8 mm
05:40 PM 57.0°F13.9°C 51.6°F10.9°C 82% 8.1 mph WSW13.0 kmh WSW 11.5 mph18.5 kmh 29.55 in1000.7 mb - 0.00 in0.0 mm 0.03 in0.8 mm
05:35 PM 57.1°F13.9°C 52.0°F11.1°C 83% 2.3 mph WSW3.7 kmh WSW 5.8 mph9.3 kmh 29.55 in1000.7 mb - 0.00 in0.0 mm 0.03 in0.8 mm
05:30 PM 57.2°F14.0°C 51.7°F10.9°C 82% 5.8 mph WSW9.3 kmh WSW 8.1 mph13.0 kmh 29.55 in1000.7 mb - 0.00 in0.0 mm 0.03 in0.8 mm
05:25 PM 57.2°F14.0°C 51.8°F11.0°C 82% 5.8 mph SW9.3 kmh SW 10.4 mph16.7 kmh 29.55 in1000.7 mb - 0.00 in0.0 mm 0.03 in0.8 mm
05:20 PM 57.1°F13.9°C 51.7°F10.9°C 82% 4.6 mph WSW7.4 kmh WSW 6.9 mph11.1 kmh 29.55 in1000.7 mb - 0.00 in0.0 mm 0.03 in0.8 mm
05:15 PM 56.9°F13.8°C 51.5°F10.8°C 82% 4.6 mph WSW7.4 kmh WSW 9.2 mph14.8 kmh 29.55 in1000.7 mb - 0.00 in0.0 mm 0.03 in0.8 mm
05:10 PM 56.6°F13.7°C 51.5°F10.8°C 83% 5.8 mph SW9.3 kmh SW 11.5 mph18.5 kmh 29.55 in1000.7 mb - 0.00 in0.0 mm 0.03 in0.8 mm
05:05 PM 56.3°F13.5°C 51.2°F10.7°C 83% 5.8 mph WSW9.3 kmh WSW 8.1 mph13.0 kmh 29.55 in1000.7 mb - 0.00 in0.0 mm 0.03 in0.8 mm
05:00 PM 56.4°F13.6°C 51.3°F10.7°C 83% 5.8 mph WSW9.3 kmh WSW 11.5 mph18.5 kmh 29.55 in1000.7 mb - 0.00 in0.0 mm 0.03 in0.8 mm
04:55 PM 56.7°F13.7°C 51.3°F10.7°C 82% 5.8 mph W9.3 kmh W 9.2 mph14.8 kmh 29.55 in1000.7 mb - 0.00 in0.0 mm 0.03 in0.8 mm
04:50 PM 57.1°F13.9°C 51.0°F10.6°C 80% 9.2 mph WSW14.8 kmh WSW 18.4 mph29.6 kmh 29.55 in1000.7 mb - 0.00 in0.0 mm 0.03 in0.8 mm
04:45 PM 57.2°F14.0°C 51.1°F10.6°C 80% 8.1 mph WSW13.0 kmh WSW 15.0 mph24.1 kmh 29.54 in1000.3 mb - 0.00 in0.0 mm 0.03 in0.8 mm
04:40 PM 57.2°F14.0°C 51.1°F10.6°C 80% 8.1 mph WSW13.0 kmh WSW 9.2 mph14.8 kmh 29.54 in1000.3 mb - 0.00 in0.0 mm 0.03 in0.8 mm
04:35 PM 57.2°F14.0°C 51.1°F10.6°C 80% 6.9 mph W11.1 kmh W 11.5 mph18.5 kmh 29.54 in1000.3 mb - 0.00 in0.0 mm 0.03 in0.8 mm
04:30 PM 57.3°F14.1°C 51.5°F10.8°C 81% 8.1 mph WSW13.0 kmh WSW 15.0 mph24.1 kmh 29.54 in1000.3 mb - 0.00 in0.0 mm 0.03 in0.8 mm
04:25 PM 57.3°F14.1°C 52.2°F11.2°C 83% 5.8 mph WSW9.3 kmh WSW 8.1 mph13.0 kmh 29.54 in1000.3 mb - 0.00 in0.0 mm 0.03 in0.8 mm
04:20 PM 57.2°F14.0°C 52.1°F11.2°C 83% 4.6 mph WSW7.4 kmh WSW 11.5 mph18.5 kmh 29.54 in1000.3 mb - 0.00 in0.0 mm 0.03 in0.8 mm
04:15 PM 57.2°F14.0°C 52.1°F11.2°C 83% 4.6 mph W7.4 kmh W 9.2 mph14.8 kmh 29.54 in1000.3 mb - 0.00 in0.0 mm 0.03 in0.8 mm
04:10 PM 57.2°F14.0°C 52.1°F11.2°C 83% 2.3 mph WSW3.7 kmh WSW 9.2 mph14.8 kmh 29.54 in1000.3 mb - 0.00 in0.0 mm 0.03 in0.8 mm
04:05 PM 57.2°F14.0°C 51.8°F11.0°C 82% 5.8 mph WSW9.3 kmh WSW 10.4 mph16.7 kmh 29.54 in1000.3 mb - 0.00 in0.0 mm 0.03 in0.8 mm
04:00 PM 57.4°F14.1°C 51.6°F10.9°C 81% 8.1 mph W13.0 kmh W 15.0 mph24.1 kmh 29.54 in1000.3 mb - 0.01 in0.3 mm 0.03 in0.8 mm
03:55 PM 57.4°F14.1°C 50.9°F10.5°C 79% 4.6 mph W7.4 kmh W 9.2 mph14.8 kmh 29.54 in1000.3 mb - 0.00 in0.0 mm 0.03 in0.8 mm
03:50 PM 57.4°F14.1°C 50.6°F10.3°C 78% 4.6 mph WSW7.4 kmh WSW 5.8 mph9.3 kmh 29.54 in1000.3 mb - 0.00 in0.0 mm 0.03 in0.8 mm
03:45 PM 57.4°F14.1°C 50.2°F10.1°C 77% 8.1 mph WSW13.0 kmh WSW 15.0 mph24.1 kmh 29.54 in1000.3 mb - 0.00 in0.0 mm 0.03 in0.8 mm
03:40 PM 57.4°F14.1°C 50.2°F10.1°C 77% 6.9 mph WSW11.1 kmh WSW 10.4 mph16.7 kmh 29.54 in1000.3 mb - 0.00 in0.0 mm 0.03 in0.8 mm
03:35 PM 57.4°F14.1°C 49.9°F9.9°C 76% 5.8 mph SW9.3 kmh SW 9.2 mph14.8 kmh 29.54 in1000.3 mb - 0.00 in0.0 mm 0.03 in0.8 mm
03:30 PM 57.4°F14.1°C 49.5°F9.7°C 75% 9.2 mph WSW14.8 kmh WSW 13.8 mph22.2 kmh 29.54 in1000.3 mb - 0.00 in0.0 mm 0.03 in0.8 mm
03:25 PM 57.5°F14.2°C 50.0°F10.0°C 76% 9.2 mph WSW14.8 kmh WSW 11.5 mph18.5 kmh 29.54 in1000.3 mb - 0.00 in0.0 mm 0.03 in0.8 mm
03:20 PM 57.6°F14.2°C 50.1°F10.1°C 76% 11.5 mph WSW18.5 kmh WSW 17.3 mph27.8 kmh 29.54 in1000.3 mb - 0.00 in0.0 mm 0.03 in0.8 mm
03:15 PM 57.8°F14.3°C 50.3°F10.2°C 76% 6.9 mph WSW11.1 kmh WSW 13.8 mph22.2 kmh 29.54 in1000.3 mb - 0.00 in0.0 mm 0.03 in0.8 mm
03:10 PM 57.9°F14.4°C 50.3°F10.2°C 76% 6.9 mph SW11.1 kmh SW 12.7 mph20.4 kmh 29.54 in1000.3 mb - 0.00 in0.0 mm 0.03 in0.8 mm
03:05 PM 57.9°F14.4°C 50.7°F10.4°C 77% 6.9 mph WSW11.1 kmh WSW 11.5 mph18.5 kmh 29.54 in1000.3 mb - 0.00 in0.0 mm 0.03 in0.8 mm
03:00 PM 57.8°F14.3°C 50.6°F10.3°C 77% 6.9 mph SW11.1 kmh SW 11.5 mph18.5 kmh 29.54 in1000.3 mb - 0.00 in0.0 mm 0.03 in0.8 mm
02:55 PM 57.7°F14.3°C 50.2°F10.1°C 76% 8.1 mph WSW13.0 kmh WSW 12.7 mph20.4 kmh 29.54 in1000.3 mb - 0.00 in0.0 mm 0.03 in0.8 mm
02:50 PM 57.7°F14.3°C 50.2°F10.1°C 76% 8.1 mph WSW13.0 kmh WSW 10.4 mph16.7 kmh 29.54 in1000.3 mb - 0.00 in0.0 mm 0.03 in0.8 mm
02:45 PM 57.8°F14.3°C 50.3°F10.2°C 76% 9.2 mph WSW14.8 kmh WSW 15.0 mph24.1 kmh 29.54 in1000.3 mb - 0.00 in0.0 mm 0.03 in0.8 mm
02:40 PM 57.7°F14.3°C 50.5°F10.3°C 77% 5.8 mph W9.3 kmh W 10.4 mph16.7 kmh 29.54 in1000.3 mb - 0.00 in0.0 mm 0.03 in0.8 mm
02:35 PM 57.6°F14.2°C 50.8°F10.4°C 78% 4.6 mph WSW7.4 kmh WSW 9.2 mph14.8 kmh 29.54 in1000.3 mb - 0.00 in0.0 mm 0.03 in0.8 mm
02:30 PM 57.5°F14.2°C 50.6°F10.3°C 78% 5.8 mph W9.3 kmh W 11.5 mph18.5 kmh 29.54 in1000.3 mb - 0.00 in0.0 mm 0.03 in0.8 mm
02:25 PM 57.1°F13.9°C 50.7°F10.4°C 79% 6.9 mph W11.1 kmh W 11.5 mph18.5 kmh 29.54 in1000.3 mb - 0.00 in0.0 mm 0.03 in0.8 mm
02:20 PM 56.9°F13.8°C 50.5°F10.3°C 79% 9.2 mph WSW14.8 kmh WSW 13.8 mph22.2 kmh 29.54 in1000.3 mb - 0.00 in0.0 mm 0.03 in0.8 mm
02:15 PM 56.7°F13.7°C 50.3°F10.2°C 79% 9.2 mph W14.8 kmh W 13.8 mph22.2 kmh 29.54 in1000.3 mb - 0.00 in0.0 mm 0.03 in0.8 mm
02:10 PM 56.7°F13.7°C 49.9°F9.9°C 78% 9.2 mph WSW14.8 kmh WSW 12.7 mph20.4 kmh 29.54 in1000.3 mb - 0.00 in0.0 mm 0.03 in0.8 mm
02:05 PM 56.5°F13.6°C 49.7°F9.8°C 78% 5.8 mph WSW9.3 kmh WSW 9.2 mph14.8 kmh 29.54 in1000.3 mb - 0.00 in0.0 mm 0.03 in0.8 mm
02:00 PM 56.5°F13.6°C 50.4°F10.2°C 80% 15.0 mph WSW24.1 kmh WSW 23.0 mph37.0 kmh 29.54 in1000.3 mb - 0.00 in0.0 mm 0.03 in0.8 mm
01:55 PM 56.6°F13.7°C 50.5°F10.3°C 80% 6.9 mph W11.1 kmh W 9.2 mph14.8 kmh 29.54 in1000.3 mb - 0.00 in0.0 mm 0.03 in0.8 mm
01:50 PM 56.8°F13.8°C 50.0°F10.0°C 78% 12.7 mph WSW20.4 kmh WSW 17.3 mph27.8 kmh 29.54 in1000.3 mb - 0.00 in0.0 mm 0.03 in0.8 mm
01:45 PM 57.0°F13.9°C 50.2°F10.1°C 78% 8.1 mph W13.0 kmh W 11.5 mph18.5 kmh 29.53 in1000.0 mb - 0.00 in0.0 mm 0.03 in0.8 mm
01:40 PM 57.3°F14.1°C 50.5°F10.3°C 78% 9.2 mph W14.8 kmh W 15.0 mph24.1 kmh 29.54 in1000.3 mb - 0.00 in0.0 mm 0.03 in0.8 mm
01:35 PM 57.5°F14.2°C 50.3°F10.2°C 77% 8.1 mph W13.0 kmh W 15.0 mph24.1 kmh 29.53 in1000.0 mb - 0.00 in0.0 mm 0.03 in0.8 mm
01:30 PM 57.5°F14.2°C 50.3°F10.2°C 77% 8.1 mph WSW13.0 kmh WSW 13.8 mph22.2 kmh 29.53 in1000.0 mb - 0.00 in0.0 mm 0.03 in0.8 mm
01:25 PM 57.5°F14.2°C 50.3°F10.2°C 77% 10.4 mph WSW16.7 kmh WSW 13.8 mph22.2 kmh 29.53 in1000.0 mb - 0.00 in0.0 mm 0.03 in0.8 mm
01:20 PM 57.7°F14.3°C 50.9°F10.5°C 78% 8.1 mph WSW13.0 kmh WSW 15.0 mph24.1 kmh 29.53 in1000.0 mb - 0.00 in0.0 mm 0.03 in0.8 mm
01:15 PM 57.9°F14.4°C 50.8°F10.4°C 77% 6.9 mph WSW11.1 kmh WSW 11.5 mph18.5 kmh 29.53 in1000.0 mb - 0.00 in0.0 mm 0.03 in0.8 mm
01:10 PM 58.1°F14.5°C 50.6°F10.3°C 76% 6.9 mph WSW11.1 kmh WSW 17.3 mph27.8 kmh 29.53 in1000.0 mb - 0.00 in0.0 mm 0.03 in0.8 mm
01:05 PM 58.4°F14.7°C 50.5°F10.3°C 75% 6.9 mph W11.1 kmh W 16.1 mph25.9 kmh 29.53 in1000.0 mb - 0.00 in0.0 mm 0.03 in0.8 mm
01:00 PM 58.5°F14.7°C 51.0°F10.6°C 76% 9.2 mph WSW14.8 kmh WSW 11.5 mph18.5 kmh 29.53 in1000.0 mb - 0.00 in0.0 mm 0.03 in0.8 mm
12:55 PM 58.5°F14.7°C 51.0°F10.6°C 76% 9.2 mph WSW14.8 kmh WSW 11.5 mph18.5 kmh 29.53 in1000.0 mb - 0.00 in0.0 mm 0.03 in0.8 mm
12:50 PM 58.6°F14.8°C 51.1°F10.6°C 76% 9.2 mph WSW14.8 kmh WSW 16.1 mph25.9 kmh 29.53 in1000.0 mb - 0.00 in0.0 mm 0.03 in0.8 mm
12:45 PM 58.3°F14.6°C 51.4°F10.8°C 78% 5.8 mph WSW9.3 kmh WSW 12.7 mph20.4 kmh 29.52 in999.7 mb - 0.00 in0.0 mm 0.03 in0.8 mm
12:40 PM 57.8°F14.3°C 50.6°F10.3°C 77% 6.9 mph WSW11.1 kmh WSW 16.1 mph25.9 kmh 29.52 in999.7 mb - 0.00 in0.0 mm 0.03 in0.8 mm
12:35 PM 57.6°F14.2°C 50.4°F10.2°C 77% 6.9 mph WSW11.1 kmh WSW 15.0 mph24.1 kmh 29.52 in999.7 mb - 0.00 in0.0 mm 0.03 in0.8 mm
12:30 PM 57.8°F14.3°C 49.9°F9.9°C 75% 6.9 mph WSW11.1 kmh WSW 10.4 mph16.7 kmh 29.52 in999.7 mb - 0.00 in0.0 mm 0.03 in0.8 mm
12:25 PM 58.2°F14.6°C 51.4°F10.8°C 78% 11.5 mph WSW18.5 kmh WSW 16.1 mph25.9 kmh 29.53 in1000.0 mb - 0.00 in0.0 mm 0.03 in0.8 mm
12:20 PM 57.9°F14.4°C 51.4°F10.8°C 79% 8.1 mph SW13.0 kmh SW 20.7 mph33.3 kmh 29.52 in999.7 mb - 0.00 in0.0 mm 0.03 in0.8 mm
12:15 PM 57.6°F14.2°C 51.5°F10.8°C 80% 8.1 mph WSW13.0 kmh WSW 12.7 mph20.4 kmh 29.52 in999.7 mb - 0.00 in0.0 mm 0.03 in0.8 mm
12:10 PM 57.5°F14.2°C 51.1°F10.6°C 79% 8.1 mph WSW13.0 kmh WSW 10.4 mph16.7 kmh 29.52 in999.7 mb - 0.00 in0.0 mm 0.03 in0.8 mm
12:05 PM 57.6°F14.2°C 51.1°F10.6°C 79% 11.5 mph WSW18.5 kmh WSW 13.8 mph22.2 kmh 29.52 in999.7 mb - 0.00 in0.0 mm 0.03 in0.8 mm
12:00 PM 57.3°F14.1°C 51.5°F10.8°C 81% 9.2 mph WSW14.8 kmh WSW 11.5 mph18.5 kmh 29.53 in1000.0 mb - 0.00 in0.0 mm 0.03 in0.8 mm
11:55 AM 57.0°F13.9°C 51.5°F10.8°C 82% 8.1 mph WSW13.0 kmh WSW 16.1 mph25.9 kmh 29.53 in1000.0 mb - 0.00 in0.0 mm 0.03 in0.8 mm
11:50 AM 56.7°F13.7°C 51.6°F10.9°C 83% 10.4 mph WSW16.7 kmh WSW 13.8 mph22.2 kmh 29.53 in1000.0 mb - 0.00 in0.0 mm 0.03 in0.8 mm
11:45 AM 56.5°F13.6°C 51.7°F10.9°C 84% 9.2 mph SW14.8 kmh SW 15.0 mph24.1 kmh 29.52 in999.7 mb - 0.00 in0.0 mm 0.03 in0.8 mm
11:40 AM 56.1°F13.4°C 52.0°F11.1°C 86% 6.9 mph WSW11.1 kmh WSW 11.5 mph18.5 kmh 29.53 in1000.0 mb - 0.00 in0.0 mm 0.03 in0.8 mm
11:35 AM 55.9°F13.3°C 52.4°F11.3°C 88% 5.8 mph SW9.3 kmh SW 10.4 mph16.7 kmh 29.53 in1000.0 mb - 0.00 in0.0 mm 0.03 in0.8 mm
11:30 AM 55.6°F13.1°C 52.4°F11.3°C 89% 2.3 mph WSW3.7 kmh WSW 4.6 mph7.4 kmh 29.53 in1000.0 mb - 0.00 in0.0 mm 0.03 in0.8 mm
11:25 AM 55.5°F13.1°C 52.6°F11.4°C 90% 2.3 mph WSW3.7 kmh WSW 5.8 mph9.3 kmh 29.53 in1000.0 mb - 0.00 in0.0 mm 0.03 in0.8 mm
11:20 AM 55.3°F12.9°C 52.4°F11.3°C 90% 3.5 mph WSW5.6 kmh WSW 5.8 mph9.3 kmh 29.53 in1000.0 mb - 0.00 in0.0 mm 0.03 in0.8 mm
11:15 AM 55.0°F12.8°C 52.1°F11.2°C 90% 3.5 mph W5.6 kmh W 5.8 mph9.3 kmh 29.53 in1000.0 mb - 0.00 in0.0 mm 0.03 in0.8 mm
11:10 AM 54.6°F12.6°C 51.8°F11.0°C 90% 2.3 mph WNW3.7 kmh WNW 3.5 mph5.6 kmh 29.53 in1000.0 mb - 0.00 in0.0 mm 0.03 in0.8 mm
11:05 AM 54.3°F12.4°C 51.4°F10.8°C 90% 1.2 mph NW1.9 kmh NW 2.3 mph3.7 kmh 29.53 in1000.0 mb - 0.00 in0.0 mm 0.03 in0.8 mm
11:00 AM 54.0°F12.2°C 51.2°F10.7°C 90% 1.2 mph WNW1.9 kmh WNW 3.5 mph5.6 kmh 29.53 in1000.0 mb - 0.00 in0.0 mm 0.03 in0.8 mm
10:55 AM 53.8°F12.1°C 51.0°F10.6°C 90% 1.2 mph W1.9 kmh W 3.5 mph5.6 kmh 29.53 in1000.0 mb - 0.00 in0.0 mm 0.03 in0.8 mm
10:50 AM 53.6°F12.0°C 50.8°F10.4°C 90% 2.3 mph W3.7 kmh W 5.8 mph9.3 kmh 29.53 in1000.0 mb - 0.00 in0.0 mm 0.03 in0.8 mm
10:45 AM 53.5°F11.9°C 50.3°F10.2°C 89% 2.3 mph WNW3.7 kmh WNW 3.5 mph5.6 kmh 29.53 in1000.0 mb - 0.00 in0.0 mm 0.03 in0.8 mm
10:40 AM 53.3°F11.8°C 50.1°F10.1°C 89% 1.2 mph W1.9 kmh W 5.8 mph9.3 kmh 29.53 in1000.0 mb - 0.01 in0.3 mm 0.03 in0.8 mm
10:35 AM 53.1°F11.7°C 50.0°F10.0°C 89% 2.3 mph W3.7 kmh W 3.5 mph5.6 kmh 29.53 in1000.0 mb - 0.00 in0.0 mm 0.02 in0.5 mm
10:30 AM 53.1°F11.7°C 49.9°F9.9°C 89% 2.3 mph NW3.7 kmh NW 3.5 mph5.6 kmh 29.54 in1000.3 mb - 0.00 in0.0 mm 0.02 in0.5 mm
10:25 AM 52.9°F11.6°C 49.8°F9.9°C 89% 1.2 mph W1.9 kmh W 3.5 mph5.6 kmh 29.54 in1000.3 mb - 0.00 in0.0 mm 0.02 in0.5 mm
10:20 AM 53.0°F11.7°C 49.6°F9.8°C 88% 2.3 mph SW3.7 kmh SW 3.5 mph5.6 kmh 29.54 in1000.3 mb - 0.00 in0.0 mm 0.02 in0.5 mm
10:15 AM 53.3°F11.8°C 50.2°F10.1°C 89% 3.5 mph WSW5.6 kmh WSW 5.8 mph9.3 kmh 29.54 in1000.3 mb - 0.00 in0.0 mm 0.02 in0.5 mm
10:10 AM 53.5°F11.9°C 50.0°F10.0°C 88% 3.5 mph W5.6 kmh W 3.5 mph5.6 kmh 29.53 in1000.0 mb - 0.00 in0.0 mm 0.02 in0.5 mm
10:05 AM 53.7°F12.1°C 50.2°F10.1°C 88% 3.5 mph NW5.6 kmh NW 5.8 mph9.3 kmh 29.53 in1000.0 mb - 0.00 in0.0 mm 0.02 in0.5 mm
10:00 AM 54.0°F12.2°C 50.8°F10.4°C 89% 3.5 mph WSW5.6 kmh WSW 6.9 mph11.1 kmh 29.53 in1000.0 mb - 0.00 in0.0 mm 0.02 in0.5 mm
09:55 AM 54.1°F12.3°C 50.7°F10.4°C 88% 3.5 mph WSW5.6 kmh WSW 6.9 mph11.1 kmh 29.53 in1000.0 mb - 0.00 in0.0 mm 0.02 in0.5 mm
09:50 AM 54.2°F12.3°C 51.0°F10.6°C 89% 2.3 mph WSW3.7 kmh WSW 6.9 mph11.1 kmh 29.53 in1000.0 mb - 0.00 in0.0 mm 0.02 in0.5 mm
09:45 AM 54.1°F12.3°C 50.9°F10.5°C 89% 4.6 mph WSW7.4 kmh WSW 8.1 mph13.0 kmh 29.53 in1000.0 mb - 0.00 in0.0 mm 0.02 in0.5 mm
09:40 AM 54.0°F12.2°C 50.8°F10.4°C 89% 3.5 mph W5.6 kmh W 6.9 mph11.1 kmh 29.53 in1000.0 mb - 0.00 in0.0 mm 0.02 in0.5 mm
09:35 AM 53.9°F12.2°C 50.4°F10.2°C 88% 2.3 mph W3.7 kmh W 6.9 mph11.1 kmh 29.53 in1000.0 mb - 0.00 in0.0 mm 0.02 in0.5 mm
09:30 AM 54.0°F12.2°C 50.5°F10.3°C 88% 3.5 mph W5.6 kmh W 5.8 mph9.3 kmh 29.53 in1000.0 mb - 0.00 in0.0 mm 0.02 in0.5 mm
09:25 AM 53.9°F12.2°C 50.7°F10.4°C 89% 4.6 mph W7.4 kmh W 9.2 mph14.8 kmh 29.54 in1000.3 mb - 0.00 in0.0 mm 0.02 in0.5 mm
09:20 AM 53.9°F12.2°C 50.4°F10.2°C 88% 5.8 mph W9.3 kmh W 9.2 mph14.8 kmh 29.53 in1000.0 mb - 0.00 in0.0 mm 0.02 in0.5 mm
09:15 AM 53.7°F12.1°C 50.2°F10.1°C 88% 3.5 mph W5.6 kmh W 8.1 mph13.0 kmh 29.53 in1000.0 mb - 0.00 in0.0 mm 0.02 in0.5 mm
09:10 AM 53.8°F12.1°C 50.0°F10.0°C 87% 3.5 mph WSW5.6 kmh WSW 4.6 mph7.4 kmh 29.53 in1000.0 mb - 0.00 in0.0 mm 0.02 in0.5 mm
09:05 AM 53.9°F12.2°C 50.1°F10.1°C 87% 3.5 mph W5.6 kmh W 8.1 mph13.0 kmh 29.53 in1000.0 mb - 0.00 in0.0 mm 0.02 in0.5 mm
09:00 AM 54.0°F12.2°C 49.9°F9.9°C 86% 3.5 mph W5.6 kmh W 6.9 mph11.1 kmh 29.53 in1000.0 mb - 0.00 in0.0 mm 0.02 in0.5 mm
08:55 AM 54.3°F12.4°C 50.2°F10.1°C 86% 5.8 mph W9.3 kmh W 11.5 mph18.5 kmh 29.53 in1000.0 mb - 0.00 in0.0 mm 0.02 in0.5 mm
08:50 AM 54.6°F12.6°C 50.5°F10.3°C 86% 4.6 mph W7.4 kmh W 9.2 mph14.8 kmh 29.53 in1000.0 mb - 0.00 in0.0 mm 0.02 in0.5 mm
08:45 AM 54.9°F12.7°C 50.8°F10.4°C 86% 2.3 mph WNW3.7 kmh WNW 8.1 mph13.0 kmh 29.53 in1000.0 mb - 0.00 in0.0 mm 0.02 in0.5 mm
08:40 AM 55.2°F12.9°C 51.4°F10.8°C 87% 4.6 mph W7.4 kmh W 9.2 mph14.8 kmh 29.53 in1000.0 mb - 0.00 in0.0 mm 0.02 in0.5 mm
08:35 AM 55.1°F12.8°C 51.3°F10.7°C 87% 2.3 mph WSW3.7 kmh WSW 3.5 mph5.6 kmh 29.52 in999.7 mb - 0.00 in0.0 mm 0.02 in0.5 mm
08:30 AM 54.9°F12.7°C 50.5°F10.3°C 85% 2.3 mph WSW3.7 kmh WSW 3.5 mph5.6 kmh 29.52 in999.7 mb - 0.00 in0.0 mm 0.02 in0.5 mm
08:25 AM 54.9°F12.7°C 51.1°F10.6°C 87% 6.9 mph WSW11.1 kmh WSW 10.4 mph16.7 kmh 29.52 in999.7 mb - 0.00 in0.0 mm 0.02 in0.5 mm
08:20 AM 54.7°F12.6°C 50.9°F10.5°C 87% 4.6 mph WSW7.4 kmh WSW 8.1 mph13.0 kmh 29.52 in999.7 mb - 0.00 in0.0 mm 0.02 in0.5 mm
08:15 AM 54.5°F12.5°C 51.3°F10.7°C 89% 8.1 mph WSW13.0 kmh WSW 9.2 mph14.8 kmh 29.52 in999.7 mb - 0.00 in0.0 mm 0.02 in0.5 mm
08:10 AM 54.1°F12.3°C 50.9°F10.5°C 89% 4.6 mph WSW7.4 kmh WSW 10.4 mph16.7 kmh 29.52 in999.7 mb - 0.00 in0.0 mm 0.02 in0.5 mm
08:05 AM 53.7°F12.1°C 50.5°F10.3°C 89% 6.9 mph W11.1 kmh W 8.1 mph13.0 kmh 29.52 in999.7 mb - 0.00 in0.0 mm 0.02 in0.5 mm
08:00 AM 53.4°F11.9°C 50.5°F10.3°C 90% 5.8 mph WSW9.3 kmh WSW 10.4 mph16.7 kmh 29.52 in999.7 mb - 0.00 in0.0 mm 0.02 in0.5 mm
07:55 AM 53.2°F11.8°C 50.3°F10.2°C 90% 4.6 mph WSW7.4 kmh WSW 9.2 mph14.8 kmh 29.51 in999.3 mb - 0.00 in0.0 mm 0.02 in0.5 mm
07:50 AM 53.0°F11.7°C 50.2°F10.1°C 90% 4.6 mph W7.4 kmh W 9.2 mph14.8 kmh 29.51 in999.3 mb - 0.00 in0.0 mm 0.02 in0.5 mm
07:45 AM 53.0°F11.7°C 50.1°F10.1°C 90% 4.6 mph WSW7.4 kmh WSW 8.1 mph13.0 kmh 29.51 in999.3 mb - 0.00 in0.0 mm 0.02 in0.5 mm
07:40 AM 52.9°F11.6°C 50.3°F10.2°C 91% 3.5 mph W5.6 kmh W 9.2 mph14.8 kmh 29.51 in999.3 mb - 0.00 in0.0 mm 0.02 in0.5 mm
07:35 AM 52.8°F11.6°C 50.2°F10.1°C 91% 3.5 mph WSW5.6 kmh WSW 6.9 mph11.1 kmh 29.50 in999.0 mb - 0.00 in0.0 mm 0.02 in0.5 mm
07:30 AM 52.8°F11.6°C 50.2°F10.1°C 91% 2.3 mph WSW3.7 kmh WSW 8.1 mph13.0 kmh 29.50 in999.0 mb - 0.00 in0.0 mm 0.02 in0.5 mm
07:25 AM 52.7°F11.5°C 50.1°F10.1°C 91% 2.3 mph W3.7 kmh W 6.9 mph11.1 kmh 29.50 in999.0 mb - 0.00 in0.0 mm 0.02 in0.5 mm
07:20 AM 52.5°F11.4°C 50.0°F10.0°C 91% 3.5 mph W5.6 kmh W 6.9 mph11.1 kmh 29.50 in999.0 mb - 0.00 in0.0 mm 0.02 in0.5 mm
07:15 AM 52.4°F11.3°C 49.8°F9.9°C 91% 3.5 mph W5.6 kmh W 8.1 mph13.0 kmh 29.50 in999.0 mb - 0.00 in0.0 mm 0.02 in0.5 mm
07:10 AM 52.4°F11.3°C 49.8°F9.9°C 91% 4.6 mph W7.4 kmh W 8.1 mph13.0 kmh 29.50 in999.0 mb - 0.00 in0.0 mm 0.02 in0.5 mm
07:05 AM 52.3°F11.3°C 49.8°F9.9°C 91% 3.5 mph W5.6 kmh W 3.5 mph5.6 kmh 29.49 in998.6 mb - 0.00 in0.0 mm 0.02 in0.5 mm
07:00 AM 52.2°F11.2°C 49.7°F9.8°C 91% 2.3 mph WNW3.7 kmh WNW 3.5 mph5.6 kmh 29.50 in999.0 mb - 0.00 in0.0 mm 0.02 in0.5 mm
06:55 AM 52.2°F11.2°C 49.7°F9.8°C 91% 2.3 mph W3.7 kmh W 8.1 mph13.0 kmh 29.50 in999.0 mb - 0.00 in0.0 mm 0.02 in0.5 mm
06:50 AM 52.3°F11.3°C 49.8°F9.9°C 91% 2.3 mph W3.7 kmh W 3.5 mph5.6 kmh 29.50 in999.0 mb - 0.00 in0.0 mm 0.02 in0.5 mm
06:45 AM 52.4°F11.3°C 49.8°F9.9°C 91% 3.5 mph W5.6 kmh W 9.2 mph14.8 kmh 29.49 in998.6 mb - 0.00 in0.0 mm 0.02 in0.5 mm
06:40 AM 52.4°F11.3°C 49.8°F9.9°C 91% 3.5 mph W5.6 kmh W 6.9 mph11.1 kmh 29.50 in999.0 mb - 0.00 in0.0 mm 0.02 in0.5 mm
06:35 AM 52.4°F11.3°C 49.8°F9.9°C 91% 3.5 mph W5.6 kmh W 5.8 mph9.3 kmh 29.49 in998.6 mb - 0.00 in0.0 mm 0.02 in0.5 mm
06:30 AM 52.4°F11.3°C 49.8°F9.9°C 91% 3.5 mph W5.6 kmh W 8.1 mph13.0 kmh 29.49 in998.6 mb - 0.00 in0.0 mm 0.02 in0.5 mm
06:25 AM 52.4°F11.3°C 49.8°F9.9°C 91% 2.3 mph W3.7 kmh W 6.9 mph11.1 kmh 29.49 in998.6 mb - 0.00 in0.0 mm 0.02 in0.5 mm
06:20 AM 52.4°F11.3°C 49.8°F9.9°C 91% 2.3 mph W3.7 kmh W 8.1 mph13.0 kmh 29.49 in998.6 mb - 0.00 in0.0 mm 0.02 in0.5 mm
06:15 AM 52.4°F11.3°C 49.8°F9.9°C 91% 3.5 mph W5.6 kmh W 3.5 mph5.6 kmh 29.49 in998.6 mb - 0.00 in0.0 mm 0.02 in0.5 mm
06:10 AM 52.4°F11.3°C 49.8°F9.9°C 91% 2.3 mph W3.7 kmh W 5.8 mph9.3 kmh 29.49 in998.6 mb - 0.00 in0.0 mm 0.02 in0.5 mm
06:05 AM 52.4°F11.3°C 49.8°F9.9°C 91% 2.3 mph W3.7 kmh W 5.8 mph9.3 kmh 29.49 in998.6 mb - 0.00 in0.0 mm 0.02 in0.5 mm
06:00 AM 52.4°F11.3°C 49.8°F9.9°C 91% 2.3 mph WNW3.7 kmh WNW 6.9 mph11.1 kmh 29.49 in998.6 mb - 0.00 in0.0 mm 0.02 in0.5 mm
05:55 AM 52.5°F11.4°C 49.9°F9.9°C 91% 2.3 mph W3.7 kmh W 3.5 mph5.6 kmh 29.49 in998.6 mb - 0.00 in0.0 mm 0.02 in0.5 mm
05:50 AM 52.5°F11.4°C 50.0°F10.0°C 91% 4.6 mph W7.4 kmh W 4.6 mph7.4 kmh 29.49 in998.6 mb - 0.00 in0.0 mm 0.02 in0.5 mm
05:45 AM 52.7°F11.5°C 49.8°F9.9°C 90% 3.5 mph W5.6 kmh W 8.1 mph13.0 kmh 29.49 in998.6 mb - 0.00 in0.0 mm 0.02 in0.5 mm
05:40 AM 52.8°F11.6°C 49.9°F9.9°C 90% 5.8 mph W9.3 kmh W 9.2 mph14.8 kmh 29.49 in998.6 mb - 0.00 in0.0 mm 0.02 in0.5 mm
05:35 AM 53.0°F11.7°C 50.4°F10.2°C 91% 4.6 mph WNW7.4 kmh WNW 5.8 mph9.3 kmh 29.49 in998.6 mb - 0.00 in0.0 mm 0.02 in0.5 mm
05:30 AM 53.1°F11.7°C 50.2°F10.1°C 90% 2.3 mph W3.7 kmh W 5.8 mph9.3 kmh 29.49 in998.6 mb - 0.00 in0.0 mm 0.02 in0.5 mm
05:25 AM 53.2°F11.8°C 50.3°F10.2°C 90% 2.3 mph W3.7 kmh W 6.9 mph11.1 kmh 29.49 in998.6 mb - 0.00 in0.0 mm 0.02 in0.5 mm
05:20 AM 53.4°F11.9°C 50.6°F10.3°C 90% 4.6 mph W7.4 kmh W 6.9 mph11.1 kmh 29.48 in998.3 mb - 0.00 in0.0 mm 0.02 in0.5 mm
05:15 AM 53.7°F12.1°C 50.8°F10.4°C 90% 4.6 mph W7.4 kmh W 9.2 mph14.8 kmh 29.48 in998.3 mb - 0.00 in0.0 mm 0.02 in0.5 mm
05:10 AM 54.1°F12.3°C 51.3°F10.7°C 90% 6.9 mph W11.1 kmh W 12.7 mph20.4 kmh 29.48 in998.3 mb - 0.00 in0.0 mm 0.02 in0.5 mm
05:05 AM 54.6°F12.6°C 52.0°F11.1°C 91% 3.5 mph WSW5.6 kmh WSW 9.2 mph14.8 kmh 29.47 in998.0 mb - 0.00 in0.0 mm 0.02 in0.5 mm
05:00 AM 55.0°F12.8°C 52.4°F11.3°C 91% 4.6 mph W7.4 kmh W 9.2 mph14.8 kmh 29.46 in997.6 mb - 0.00 in0.0 mm 0.02 in0.5 mm
04:55 AM 55.1°F12.8°C 52.6°F11.4°C 91% 4.6 mph WSW7.4 kmh WSW 5.8 mph9.3 kmh 29.46 in997.6 mb - 0.00 in0.0 mm 0.02 in0.5 mm
04:50 AM 55.3°F12.9°C 52.7°F11.5°C 91% 1.2 mph SW1.9 kmh SW 3.5 mph5.6 kmh 29.46 in997.6 mb - 0.00 in0.0 mm 0.02 in0.5 mm
04:45 AM 55.3°F12.9°C 52.7°F11.5°C 91% 2.3 mph SE3.7 kmh SE 2.3 mph3.7 kmh 29.46 in997.6 mb - 0.00 in0.0 mm 0.02 in0.5 mm
04:40 AM 55.3°F12.9°C 52.7°F11.5°C 91% 1.2 mph E1.9 kmh E 3.5 mph5.6 kmh 29.45 in997.3 mb - 0.00 in0.0 mm 0.02 in0.5 mm
04:35 AM 55.3°F12.9°C 52.7°F11.5°C 91% 2.3 mph E3.7 kmh E 3.5 mph5.6 kmh 29.45 in997.3 mb - 0.00 in0.0 mm 0.02 in0.5 mm
04:30 AM 55.2°F12.9°C 52.6°F11.4°C 91% Calm Calm -- 29.45 in997.3 mb - 0.00 in0.0 mm 0.02 in0.5 mm
04:25 AM 55.2°F12.9°C 52.6°F11.4°C 91% 2.3 mph E3.7 kmh E 3.5 mph5.6 kmh 29.45 in997.3 mb - 0.00 in0.0 mm 0.02 in0.5 mm
04:20 AM 55.1°F12.8°C 52.5°F11.4°C 91% 2.3 mph E3.7 kmh E 3.5 mph5.6 kmh 29.46 in997.6 mb - 0.01 in0.3 mm 0.02 in0.5 mm
04:15 AM 55.1°F12.8°C 52.5°F11.4°C 91% 2.3 mph E3.7 kmh E 3.5 mph5.6 kmh 29.46 in997.6 mb - 0.00 in0.0 mm 0.01 in0.3 mm
04:10 AM 55.1°F12.8°C 52.5°F11.4°C 91% 3.5 mph E5.6 kmh E 3.5 mph5.6 kmh 29.46 in997.6 mb - 0.00 in0.0 mm 0.01 in0.3 mm
04:05 AM 55.1°F12.8°C 52.5°F11.4°C 91% 2.3 mph E3.7 kmh E 3.5 mph5.6 kmh 29.46 in997.6 mb - 0.00 in0.0 mm 0.01 in0.3 mm
04:00 AM 55.1°F12.8°C 52.5°F11.4°C 91% 1.2 mph E1.9 kmh E 3.5 mph5.6 kmh 29.46 in997.6 mb - 0.00 in0.0 mm 0.01 in0.3 mm
03:55 AM 55.1°F12.8°C 52.5°F11.4°C 91% 1.2 mph E1.9 kmh E 3.5 mph5.6 kmh 29.46 in997.6 mb - 0.00 in0.0 mm 0.01 in0.3 mm
03:50 AM 55.1°F12.8°C 52.5°F11.4°C 91% 1.2 mph E1.9 kmh E 3.5 mph5.6 kmh 29.46 in997.6 mb - 0.00 in0.0 mm 0.01 in0.3 mm
03:45 AM 55.0°F12.8°C 52.5°F11.4°C 91% 2.3 mph E3.7 kmh E 3.5 mph5.6 kmh 29.47 in998.0 mb - 0.00 in0.0 mm 0.01 in0.3 mm
03:40 AM 54.9°F12.7°C 52.3°F11.3°C 91% Calm Calm 1.2 mph1.9 kmh 29.47 in998.0 mb - 0.00 in0.0 mm 0.01 in0.3 mm
03:35 AM 54.9°F12.7°C 52.3°F11.3°C 91% 1.2 mph E1.9 kmh E 2.3 mph3.7 kmh 29.47 in998.0 mb - 0.00 in0.0 mm 0.01 in0.3 mm
03:30 AM 54.8°F12.7°C 52.2°F11.2°C 91% Calm Calm -- 29.47 in998.0 mb - 0.00 in0.0 mm 0.01 in0.3 mm
03:25 AM 54.8°F12.7°C 52.2°F11.2°C 91% Calm Calm -- 29.47 in998.0 mb - 0.00 in0.0 mm 0.01 in0.3 mm
03:20 AM 54.8°F12.7°C 52.2°F11.2°C 91% Calm Calm -- 29.47 in998.0 mb - 0.00 in0.0 mm 0.01 in0.3 mm
03:15 AM 54.9°F12.7°C 52.3°F11.3°C 91% Calm Calm -- 29.48 in998.3 mb - 0.00 in0.0 mm 0.01 in0.3 mm
03:10 AM 54.9°F12.7°C 52.3°F11.3°C 91% 2.3 mph E3.7 kmh E 3.5 mph5.6 kmh 29.48 in998.3 mb - 0.00 in0.0 mm 0.01 in0.3 mm
03:05 AM 54.9°F12.7°C 52.3°F11.3°C 91% 2.3 mph E3.7 kmh E 3.5 mph5.6 kmh 29.48 in998.3 mb - 0.00 in0.0 mm 0.01 in0.3 mm
03:00 AM 54.9°F12.7°C 52.3°F11.3°C 91% Calm Calm -- 29.48 in998.3 mb - 0.00 in0.0 mm 0.01 in0.3 mm
02:55 AM 55.0°F12.8°C 52.4°F11.3°C 91% Calm Calm -- 29.48 in998.3 mb - 0.00 in0.0 mm 0.01 in0.3 mm
02:50 AM 55.1°F12.8°C 52.5°F11.4°C 91% Calm Calm -- 29.49 in998.6 mb - 0.00 in0.0 mm 0.01 in0.3 mm
02:45 AM 55.1°F12.8°C 52.5°F11.4°C 91% Calm Calm -- 29.49 in998.6 mb - 0.00 in0.0 mm 0.01 in0.3 mm
02:40 AM 55.1°F12.8°C 52.5°F11.4°C 91% 1.2 mph E1.9 kmh E 2.3 mph3.7 kmh 29.49 in998.6 mb - 0.00 in0.0 mm 0.01 in0.3 mm
02:35 AM 55.2°F12.9°C 52.6°F11.4°C 91% 2.3 mph E3.7 kmh E 3.5 mph5.6 kmh 29.49 in998.6 mb - 0.00 in0.0 mm 0.01 in0.3 mm
02:30 AM 55.3°F12.9°C 52.7°F11.5°C 91% 2.3 mph E3.7 kmh E 3.5 mph5.6 kmh 29.49 in998.6 mb - 0.00 in0.0 mm 0.01 in0.3 mm
02:25 AM 55.3°F12.9°C 52.7°F11.5°C 91% Calm Calm -- 29.50 in999.0 mb - 0.00 in0.0 mm 0.01 in0.3 mm
02:20 AM 55.3°F12.9°C 52.7°F11.5°C 91% 2.3 mph E3.7 kmh E 3.5 mph5.6 kmh 29.50 in999.0 mb - 0.00 in0.0 mm 0.01 in0.3 mm
02:15 AM 55.3°F12.9°C 52.7°F11.5°C 91% 1.2 mph ESE1.9 kmh ESE 2.3 mph3.7 kmh 29.50 in999.0 mb - 0.00 in0.0 mm 0.01 in0.3 mm
02:10 AM 55.2°F12.9°C 52.6°F11.4°C 91% 2.3 mph E3.7 kmh E 3.5 mph5.6 kmh 29.50 in999.0 mb - 0.00 in0.0 mm 0.01 in0.3 mm
02:05 AM 55.2°F12.9°C 52.3°F11.3°C 90% 1.2 mph E1.9 kmh E 2.3 mph3.7 kmh 29.50 in999.0 mb - 0.00 in0.0 mm 0.01 in0.3 mm
02:00 AM 55.2°F12.9°C 52.3°F11.3°C 90% Calm Calm 2.3 mph3.7 kmh 29.50 in999.0 mb - 0.00 in0.0 mm 0.01 in0.3 mm
01:55 AM 55.2°F12.9°C 52.3°F11.3°C 90% Calm Calm 1.2 mph1.9 kmh 29.50 in999.0 mb - 0.00 in0.0 mm 0.01 in0.3 mm
01:50 AM 55.2°F12.9°C 52.4°F11.3°C 90% 2.3 mph E3.7 kmh E 2.3 mph3.7 kmh 29.50 in999.0 mb - 0.00 in0.0 mm 0.01 in0.3 mm
01:45 AM 55.3°F12.9°C 52.4°F11.3°C 90% 3.5 mph ENE5.6 kmh ENE 4.6 mph7.4 kmh 29.50 in999.0 mb - 0.00 in0.0 mm 0.01 in0.3 mm
01:40 AM 55.3°F12.9°C 52.4°F11.3°C 90% 2.3 mph ENE3.7 kmh ENE 3.5 mph5.6 kmh 29.50 in999.0 mb - 0.00 in0.0 mm 0.01 in0.3 mm
01:35 AM 55.2°F12.9°C 52.3°F11.3°C 90% 2.3 mph E3.7 kmh E 2.3 mph3.7 kmh 29.51 in999.3 mb - 0.00 in0.0 mm 0.01 in0.3 mm
01:30 AM 55.2°F12.9°C 52.3°F11.3°C 90% 2.3 mph ESE3.7 kmh ESE 3.5 mph5.6 kmh 29.51 in999.3 mb - 0.00 in0.0 mm 0.01 in0.3 mm
01:25 AM 55.3°F12.9°C 52.4°F11.3°C 90% 2.3 mph E3.7 kmh E 3.5 mph5.6 kmh 29.51 in999.3 mb - 0.00 in0.0 mm 0.01 in0.3 mm
01:20 AM 55.3°F12.9°C 52.4°F11.3°C 90% 2.3 mph E3.7 kmh E 3.5 mph5.6 kmh 29.51 in999.3 mb - 0.00 in0.0 mm 0.01 in0.3 mm
01:15 AM 55.3°F12.9°C 52.4°F11.3°C 90% 2.3 mph ESE3.7 kmh ESE 3.5 mph5.6 kmh 29.51 in999.3 mb - 0.00 in0.0 mm 0.01 in0.3 mm
01:10 AM 55.3°F12.9°C 52.4°F11.3°C 90% 1.2 mph NE1.9 kmh NE 3.5 mph5.6 kmh 29.51 in999.3 mb - 0.00 in0.0 mm 0.01 in0.3 mm
01:05 AM 55.4°F13.0°C 52.5°F11.4°C 90% Calm Calm -- 29.51 in999.3 mb - 0.00 in0.0 mm 0.01 in0.3 mm
01:00 AM 55.5°F13.1°C 52.6°F11.4°C 90% 1.2 mph NE1.9 kmh NE 3.5 mph5.6 kmh 29.52 in999.7 mb - 0.00 in0.0 mm 0.01 in0.3 mm
12:55 AM 55.6°F13.1°C 52.7°F11.5°C 90% 2.3 mph NE3.7 kmh NE 3.5 mph5.6 kmh 29.52 in999.7 mb - 0.00 in0.0 mm 0.01 in0.3 mm
12:50 AM 55.7°F13.2°C 52.8°F11.6°C 90% Calm Calm -- 29.53 in1000.0 mb - 0.00 in0.0 mm 0.01 in0.3 mm
12:45 AM 55.7°F13.2°C 52.8°F11.6°C 90% Calm Calm -- 29.54 in1000.3 mb - 0.00 in0.0 mm 0.01 in0.3 mm
12:40 AM 55.7°F13.2°C 52.8°F11.6°C 90% Calm Calm 1.2 mph1.9 kmh 29.54 in1000.3 mb - 0.01 in0.3 mm 0.01 in0.3 mm
12:35 AM 55.8°F13.2°C 52.9°F11.6°C 90% Calm Calm -- 29.54 in1000.3 mb - 0.00 in0.0 mm 0.00 in0.0 mm
12:30 AM 55.8°F13.2°C 52.9°F11.6°C 90% Calm Calm 1.2 mph1.9 kmh 29.54 in1000.3 mb - 0.00 in0.0 mm 0.00 in0.0 mm
12:25 AM 55.7°F13.2°C 52.8°F11.6°C 90% 2.3 mph E3.7 kmh E 3.5 mph5.6 kmh 29.54 in1000.3 mb - 0.00 in0.0 mm 0.00 in0.0 mm
12:20 AM 55.6°F13.1°C 52.7°F11.5°C 90% 2.3 mph E3.7 kmh E 5.8 mph9.3 kmh 29.55 in1000.7 mb - 0.00 in0.0 mm 0.00 in0.0 mm
12:15 AM 55.3°F12.9°C 52.5°F11.4°C 90% 2.3 mph E3.7 kmh E 3.5 mph5.6 kmh 29.55 in1000.7 mb - 0.00 in0.0 mm 0.00 in0.0 mm
12:10 AM 55.1°F12.8°C 52.2°F11.2°C 90% 1.2 mph E1.9 kmh E 3.5 mph5.6 kmh 29.55 in1000.7 mb - 0.00 in0.0 mm 0.00 in0.0 mm
12:05 AM 55.0°F12.8°C 52.1°F11.2°C 90% 2.3 mph E3.7 kmh E 3.5 mph5.6 kmh 29.55 in1000.7 mb - 0.00 in0.0 mm 0.00 in0.0 mm
12:00 AM 54.9°F12.7°C 52.0°F11.1°C 90% 2.3 mph E3.7 kmh E 3.5 mph5.6 kmh 29.56 in1001.0 mb - 0.00 in0.0 mm 0.00 in0.0 mm